sensor_id;sensor_type;location;lat;lon;timestamp;pressure;altitude;pressure_sealevel;temperature;humidity
77360;BME280;66426;51.454;7.266;2023-04-24T00:00:44;98621.13;;;10.89;69.64
77360;BME280;66426;51.454;7.266;2023-04-24T00:01:45;98623.53;;;10.80;70.07
77360;BME280;66426;51.454;7.266;2023-04-24T00:02:46;98623.44;;;10.82;70.50
77360;BME280;66426;51.454;7.266;2023-04-24T00:03:47;98631.56;;;10.93;69.39
77360;BME280;66426;51.454;7.266;2023-04-24T00:04:48;98629.09;;;10.90;69.49
77360;BME280;66426;51.454;7.266;2023-04-24T00:05:49;98620.63;;;10.84;70.50
77360;BME280;66426;51.454;7.266;2023-04-24T00:06:51;98624.94;;;10.86;69.61
77360;BME280;66426;51.454;7.266;2023-04-24T00:07:55;98621.75;;;10.92;70.05
77360;BME280;66426;51.454;7.266;2023-04-24T00:08:56;98613.13;;;10.76;70.28
77360;BME280;66426;51.454;7.266;2023-04-24T00:09:57;98625.38;;;10.80;70.12
77360;BME280;66426;51.454;7.266;2023-04-24T00:10:58;98619.25;;;10.78;69.68
77360;BME280;66426;51.454;7.266;2023-04-24T00:11:59;98622.50;;;10.59;70.28
77360;BME280;66426;51.454;7.266;2023-04-24T00:13:01;98622.34;;;10.61;69.94
77360;BME280;66426;51.454;7.266;2023-04-24T00:14:02;98622.16;;;10.64;70.06
77360;BME280;66426;51.454;7.266;2023-04-24T00:15:05;98619.06;;;10.57;69.91
77360;BME280;66426;51.454;7.266;2023-04-24T00:16:06;98627.53;;;10.40;70.13
77360;BME280;66426;51.454;7.266;2023-04-24T00:17:07;98622.56;;;10.46;69.62
77360;BME280;66426;51.454;7.266;2023-04-24T00:18:08;98623.28;;;10.72;68.81
77360;BME280;66426;51.454;7.266;2023-04-24T00:19:08;98621.41;;;10.62;69.18
77360;BME280;66426;51.454;7.266;2023-04-24T00:20:10;98626.56;;;10.65;69.08
77360;BME280;66426;51.454;7.266;2023-04-24T00:21:11;98632.63;;;10.55;69.38
77360;BME280;66426;51.454;7.266;2023-04-24T00:22:12;98622.88;;;10.66;69.02
77360;BME280;66426;51.454;7.266;2023-04-24T00:23:13;98630.06;;;10.54;69.01
77360;BME280;66426;51.454;7.266;2023-04-24T00:24:14;98622.09;;;10.52;69.20
77360;BME280;66426;51.454;7.266;2023-04-24T00:25:16;98623.25;;;10.61;69.26
77360;BME280;66426;51.454;7.266;2023-04-24T00:26:17;98623.75;;;10.66;69.22
77360;BME280;66426;51.454;7.266;2023-04-24T00:27:18;98621.00;;;10.55;69.86
77360;BME280;66426;51.454;7.266;2023-04-24T00:28:20;98626.66;;;10.63;69.27
77360;BME280;66426;51.454;7.266;2023-04-24T00:29:21;98619.16;;;10.55;68.81
77360;BME280;66426;51.454;7.266;2023-04-24T00:30:22;98619.38;;;10.52;68.89
77360;BME280;66426;51.454;7.266;2023-04-24T00:31:23;98628.31;;;10.53;69.38
77360;BME280;66426;51.454;7.266;2023-04-24T00:32:24;98626.97;;;10.47;69.60
77360;BME280;66426;51.454;7.266;2023-04-24T00:33:25;98613.38;;;10.49;69.13
77360;BME280;66426;51.454;7.266;2023-04-24T00:34:26;98612.56;;;10.35;70.13
77360;BME280;66426;51.454;7.266;2023-04-24T00:35:27;98610.75;;;10.23;70.94
77360;BME280;66426;51.454;7.266;2023-04-24T00:36:28;98608.78;;;10.38;69.67
77360;BME280;66426;51.454;7.266;2023-04-24T00:37:28;98626.16;;;10.34;70.25
77360;BME280;66426;51.454;7.266;2023-04-24T00:38:29;98622.16;;;10.27;70.43
77360;BME280;66426;51.454;7.266;2023-04-24T00:39:30;98611.00;;;10.20;70.32
77360;BME280;66426;51.454;7.266;2023-04-24T00:40:31;98612.94;;;10.18;70.79
77360;BME280;66426;51.454;7.266;2023-04-24T00:41:32;98613.22;;;10.39;70.37
77360;BME280;66426;51.454;7.266;2023-04-24T00:42:33;98618.44;;;10.17;70.55
77360;BME280;66426;51.454;7.266;2023-04-24T00:43:36;98614.19;;;10.25;70.01
77360;BME280;66426;51.454;7.266;2023-04-24T00:44:37;98619.56;;;10.38;69.82
77360;BME280;66426;51.454;7.266;2023-04-24T00:45:38;98620.25;;;10.29;69.59
77360;BME280;66426;51.454;7.266;2023-04-24T00:46:39;98615.84;;;10.28;69.93
77360;BME280;66426;51.454;7.266;2023-04-24T00:47:41;98623.03;;;10.27;70.54
77360;BME280;66426;51.454;7.266;2023-04-24T00:48:43;98628.34;;;10.16;70.76
77360;BME280;66426;51.454;7.266;2023-04-24T00:49:44;98619.19;;;10.19;70.57
77360;BME280;66426;51.454;7.266;2023-04-24T00:50:45;98625.72;;;10.27;69.70
77360;BME280;66426;51.454;7.266;2023-04-24T00:51:46;98615.41;;;10.34;69.72
77360;BME280;66426;51.454;7.266;2023-04-24T00:52:47;98618.84;;;10.23;69.83
77360;BME280;66426;51.454;7.266;2023-04-24T00:53:48;98620.84;;;10.08;70.62
77360;BME280;66426;51.454;7.266;2023-04-24T00:54:49;98614.47;;;10.09;70.57
77360;BME280;66426;51.454;7.266;2023-04-24T00:55:50;98621.00;;;10.18;70.12
77360;BME280;66426;51.454;7.266;2023-04-24T00:56:51;98609.44;;;10.05;70.76
77360;BME280;66426;51.454;7.266;2023-04-24T00:57:53;98612.88;;;10.07;71.21
77360;BME280;66426;51.454;7.266;2023-04-24T00:58:55;98608.06;;;10.23;70.98
77360;BME280;66426;51.454;7.266;2023-04-24T00:59:56;98614.00;;;10.15;70.87
77360;BME280;66426;51.454;7.266;2023-04-24T01:00:58;98614.19;;;10.01;70.71
77360;BME280;66426;51.454;7.266;2023-04-24T01:01:59;98619.63;;;10.12;70.73
77360;BME280;66426;51.454;7.266;2023-04-24T01:03:01;98615.75;;;10.17;70.31
77360;BME280;66426;51.454;7.266;2023-04-24T01:04:05;98620.84;;;10.08;71.03
77360;BME280;66426;51.454;7.266;2023-04-24T01:05:07;98614.88;;;10.29;70.11
77360;BME280;66426;51.454;7.266;2023-04-24T01:06:09;98614.47;;;10.09;70.26
77360;BME280;66426;51.454;7.266;2023-04-24T01:07:11;98619.25;;;9.93;70.77
77360;BME280;66426;51.454;7.266;2023-04-24T01:08:12;98626.09;;;10.10;69.50
77360;BME280;66426;51.454;7.266;2023-04-24T01:09:14;98620.28;;;10.03;69.15
77360;BME280;66426;51.454;7.266;2023-04-24T01:10:16;98619.06;;;9.96;70.23
77360;BME280;66426;51.454;7.266;2023-04-24T01:11:18;98614.72;;;10.06;70.07
77360;BME280;66426;51.454;7.266;2023-04-24T01:12:19;98623.41;;;10.10;69.37
77360;BME280;66426;51.454;7.266;2023-04-24T01:13:20;98615.91;;;10.02;69.79
77360;BME280;66426;51.454;7.266;2023-04-24T01:14:23;98619.13;;;10.07;69.45
77360;BME280;66426;51.454;7.266;2023-04-24T01:15:24;98623.41;;;10.10;68.93
77360;BME280;66426;51.454;7.266;2023-04-24T01:16:25;98624.06;;;10.01;69.39
77360;BME280;66426;51.454;7.266;2023-04-24T01:17:26;98618.69;;;10.01;68.72
77360;BME280;66426;51.454;7.266;2023-04-24T01:18:27;98617.59;;;10.03;68.35
77360;BME280;66426;51.454;7.266;2023-04-24T01:19:28;98623.41;;;10.10;68.18
77360;BME280;66426;51.454;7.266;2023-04-24T01:20:29;98611.53;;;9.88;68.54
77360;BME280;66426;51.454;7.266;2023-04-24T01:21:33;98627.03;;;9.85;68.41
77360;BME280;66426;51.454;7.266;2023-04-24T01:22:36;98632.94;;;9.90;68.38
77360;BME280;66426;51.454;7.266;2023-04-24T01:23:37;98621.19;;;10.04;67.29
77360;BME280;66426;51.454;7.266;2023-04-24T01:24:38;98626.44;;;10.05;67.00
77360;BME280;66426;51.454;7.266;2023-04-24T01:25:39;98620.63;;;10.11;67.38
77360;BME280;66426;51.454;7.266;2023-04-24T01:26:40;98617.84;;;10.00;68.19
77360;BME280;66426;51.454;7.266;2023-04-24T01:27:41;98623.00;;;10.03;68.08
77360;BME280;66426;51.454;7.266;2023-04-24T01:28:43;98619.25;;;9.93;68.37
77360;BME280;66426;51.454;7.266;2023-04-24T01:29:44;98631.06;;;10.03;67.90
77360;BME280;66426;51.454;7.266;2023-04-24T01:30:45;98621.63;;;9.98;67.51
77360;BME280;66426;51.454;7.266;2023-04-24T01:31:46;98636.56;;;10.02;67.60
77360;BME280;66426;51.454;7.266;2023-04-24T01:32:48;98617.50;;;10.05;67.16
77360;BME280;66426;51.454;7.266;2023-04-24T01:33:49;98619.28;;;10.17;67.04
77360;BME280;66426;51.454;7.266;2023-04-24T01:34:50;98620.81;;;10.21;67.04
77360;BME280;66426;51.454;7.266;2023-04-24T01:35:52;98626.53;;;10.17;66.69
77360;BME280;66426;51.454;7.266;2023-04-24T01:36:53;98621.28;;;10.02;67.08
77360;BME280;66426;51.454;7.266;2023-04-24T01:37:55;98621.47;;;10.12;67.26
77360;BME280;66426;51.454;7.266;2023-04-24T01:38:56;98630.84;;;10.06;67.45
77360;BME280;66426;51.454;7.266;2023-04-24T01:39:57;98622.78;;;10.06;67.53
77360;BME280;66426;51.454;7.266;2023-04-24T01:40:58;98620.94;;;10.07;67.86
77360;BME280;66426;51.454;7.266;2023-04-24T01:41:59;98616.69;;;9.91;68.46
77360;BME280;66426;51.454;7.266;2023-04-24T01:43:01;98621.31;;;9.89;68.71
77360;BME280;66426;51.454;7.266;2023-04-24T01:44:02;98628.31;;;9.92;68.29
77360;BME280;66426;51.454;7.266;2023-04-24T01:45:05;98627.97;;;9.97;68.34
77360;BME280;66426;51.454;7.266;2023-04-24T01:46:06;98619.16;;;9.94;68.59
77360;BME280;66426;51.454;7.266;2023-04-24T01:47:07;98630.69;;;9.84;68.83
77360;BME280;66426;51.454;7.266;2023-04-24T01:48:08;98627.06;;;9.72;68.92
77360;BME280;66426;51.454;7.266;2023-04-24T01:49:09;98621.13;;;9.80;69.08
77360;BME280;66426;51.454;7.266;2023-04-24T01:50:11;98627.91;;;9.72;69.19
77360;BME280;66426;51.454;7.266;2023-04-24T01:51:12;98627.69;;;9.76;69.34
77360;BME280;66426;51.454;7.266;2023-04-24T01:52:13;98624.34;;;9.85;68.97
77360;BME280;66426;51.454;7.266;2023-04-24T01:53:15;98616.03;;;9.88;68.68
77360;BME280;66426;51.454;7.266;2023-04-24T01:54:16;98631.69;;;9.70;69.70
77360;BME280;66426;51.454;7.266;2023-04-24T01:55:17;98628.22;;;9.68;69.27
77360;BME280;66426;51.454;7.266;2023-04-24T01:56:19;98628.13;;;9.69;69.26
77360;BME280;66426;51.454;7.266;2023-04-24T01:57:20;98626.72;;;9.77;69.16
77360;BME280;66426;51.454;7.266;2023-04-24T01:58:22;98630.91;;;9.81;68.98
77360;BME280;66426;51.454;7.266;2023-04-24T01:59:23;98631.47;;;9.60;70.20
77360;BME280;66426;51.454;7.266;2023-04-24T02:00:25;98620.59;;;9.75;69.84
77360;BME280;66426;51.454;7.266;2023-04-24T02:01:26;98631.91;;;9.67;69.66
77360;BME280;66426;51.454;7.266;2023-04-24T02:02:27;98616.72;;;9.66;69.96
77360;BME280;66426;51.454;7.266;2023-04-24T02:03:29;98621.47;;;9.62;69.85
77360;BME280;66426;51.454;7.266;2023-04-24T02:04:30;98629.22;;;9.54;70.06
77360;BME280;66426;51.454;7.266;2023-04-24T02:05:31;98629.44;;;9.64;69.99
77360;BME280;66426;51.454;7.266;2023-04-24T02:06:32;98626.31;;;9.57;70.47
77360;BME280;66426;51.454;7.266;2023-04-24T02:07:32;98630.09;;;9.55;70.75
77360;BME280;66426;51.454;7.266;2023-04-24T02:08:35;98619.00;;;9.72;70.01
77360;BME280;66426;51.454;7.266;2023-04-24T02:09:36;98617.41;;;9.57;70.07
77360;BME280;66426;51.454;7.266;2023-04-24T02:10:37;98632.66;;;9.43;70.50
77360;BME280;66426;51.454;7.266;2023-04-24T02:11:37;98631.50;;;9.35;70.98
77360;BME280;66426;51.454;7.266;2023-04-24T02:12:38;98649.13;;;9.52;70.66
77360;BME280;66426;51.454;7.266;2023-04-24T02:13:39;98636.66;;;9.38;71.32
77360;BME280;66426;51.454;7.266;2023-04-24T02:14:40;98641.63;;;9.31;71.56
77360;BME280;66426;51.454;7.266;2023-04-24T02:15:42;98641.72;;;9.29;71.34
77360;BME280;66426;51.454;7.266;2023-04-24T02:16:43;98647.41;;;9.25;71.72
77360;BME280;66426;51.454;7.266;2023-04-24T02:17:44;98642.22;;;9.09;72.04
77360;BME280;66426;51.454;7.266;2023-04-24T02:18:45;98646.63;;;9.23;72.08
77360;BME280;66426;51.454;7.266;2023-04-24T02:19:46;98633.09;;;9.12;72.61
77360;BME280;66426;51.454;7.266;2023-04-24T02:20:47;98628.34;;;9.02;72.33
77360;BME280;66426;51.454;7.266;2023-04-24T02:21:48;98642.00;;;8.99;72.98
77360;BME280;66426;51.454;7.266;2023-04-24T02:22:49;98637.50;;;9.13;72.54
77360;BME280;66426;51.454;7.266;2023-04-24T02:23:51;98655.28;;;8.88;73.13
77360;BME280;66426;51.454;7.266;2023-04-24T02:24:52;98634.78;;;8.87;73.33
77360;BME280;66426;51.454;7.266;2023-04-24T02:25:53;98638.09;;;8.78;74.22
77360;BME280;66426;51.454;7.266;2023-04-24T02:26:53;98637.22;;;8.77;74.06
77360;BME280;66426;51.454;7.266;2023-04-24T02:27:55;98637.47;;;9.00;73.02
77360;BME280;66426;51.454;7.266;2023-04-24T02:28:56;98640.94;;;9.02;72.76
77360;BME280;66426;51.454;7.266;2023-04-24T02:29:57;98646.81;;;8.94;73.40
77360;BME280;66426;51.454;7.266;2023-04-24T02:30:57;98662.50;;;8.88;73.23
77360;BME280;66426;51.454;7.266;2023-04-24T02:31:59;98635.63;;;8.88;73.42
77360;BME280;66426;51.454;7.266;2023-04-24T02:33:00;98649.59;;;8.80;73.50
77360;BME280;66426;51.454;7.266;2023-04-24T02:34:01;98645.44;;;8.89;73.86
77360;BME280;66426;51.454;7.266;2023-04-24T02:35:02;98644.31;;;8.78;73.51
77360;BME280;66426;51.454;7.266;2023-04-24T02:36:03;98650.56;;;8.79;73.66
77360;BME280;66426;51.454;7.266;2023-04-24T02:37:04;98655.16;;;8.77;73.76
77360;BME280;66426;51.454;7.266;2023-04-24T02:38:05;98663.00;;;8.80;74.10
77360;BME280;66426;51.454;7.266;2023-04-24T02:39:07;98665.38;;;8.84;73.63
77360;BME280;66426;51.454;7.266;2023-04-24T02:40:09;98658.84;;;8.89;73.61
77360;BME280;66426;51.454;7.266;2023-04-24T02:41:10;98650.91;;;8.87;73.59
77360;BME280;66426;51.454;7.266;2023-04-24T02:42:11;98660.19;;;8.69;74.16
77360;BME280;66426;51.454;7.266;2023-04-24T02:43:12;98661.91;;;8.70;74.55
77360;BME280;66426;51.454;7.266;2023-04-24T02:44:13;98659.81;;;8.88;73.64
77360;BME280;66426;51.454;7.266;2023-04-24T02:45:14;98652.91;;;8.83;74.20
77360;BME280;66426;51.454;7.266;2023-04-24T02:46:15;98648.66;;;8.94;73.67
77360;BME280;66426;51.454;7.266;2023-04-24T02:47:16;98648.31;;;8.98;73.67
77360;BME280;66426;51.454;7.266;2023-04-24T02:48:16;98657.44;;;8.96;73.95
77360;BME280;66426;51.454;7.266;2023-04-24T02:49:17;98651.91;;;8.99;73.73
77360;BME280;66426;51.454;7.266;2023-04-24T02:50:18;98661.94;;;8.82;74.39
77360;BME280;66426;51.454;7.266;2023-04-24T02:51:19;98658.94;;;8.87;74.29
77360;BME280;66426;51.454;7.266;2023-04-24T02:52:20;98663.25;;;8.90;73.96
77360;BME280;66426;51.454;7.266;2023-04-24T02:53:21;98662.28;;;8.91;74.05
77360;BME280;66426;51.454;7.266;2023-04-24T02:54:24;98664.53;;;8.84;74.69
77360;BME280;66426;51.454;7.266;2023-04-24T02:55:25;98660.53;;;8.77;74.98
77360;BME280;66426;51.454;7.266;2023-04-24T02:56:26;98659.69;;;8.76;74.74
77360;BME280;66426;51.454;7.266;2023-04-24T02:57:27;98651.34;;;8.94;74.42
77360;BME280;66426;51.454;7.266;2023-04-24T02:58:28;98655.97;;;9.04;74.00
77360;BME280;66426;51.454;7.266;2023-04-24T02:59:29;98659.94;;;8.99;74.29
77360;BME280;66426;51.454;7.266;2023-04-24T03:00:30;98657.66;;;8.93;73.99
77360;BME280;66426;51.454;7.266;2023-04-24T03:01:31;98661.94;;;8.82;74.75
77360;BME280;66426;51.454;7.266;2023-04-24T03:02:31;98662.81;;;8.96;74.21
77360;BME280;66426;51.454;7.266;2023-04-24T03:03:32;98664.66;;;8.95;74.68
77360;BME280;66426;51.454;7.266;2023-04-24T03:04:33;98671.75;;;8.96;74.63
77360;BME280;66426;51.454;7.266;2023-04-24T03:05:34;98666.41;;;8.96;74.61
77360;BME280;66426;51.454;7.266;2023-04-24T03:06:35;98668.84;;;8.87;75.09
77360;BME280;66426;51.454;7.266;2023-04-24T03:07:36;98661.19;;;8.80;75.21
77360;BME280;66426;51.454;7.266;2023-04-24T03:08:37;98673.94;;;9.04;74.42
77360;BME280;66426;51.454;7.266;2023-04-24T03:09:39;98650.94;;;9.13;74.02
77360;BME280;66426;51.454;7.266;2023-04-24T03:10:40;98664.78;;;9.06;74.07
77360;BME280;66426;51.454;7.266;2023-04-24T03:11:41;98657.03;;;8.89;74.92
77360;BME280;66426;51.454;7.266;2023-04-24T03:12:42;98665.38;;;8.84;75.13
77360;BME280;66426;51.454;7.266;2023-04-24T03:13:43;98664.09;;;8.90;74.99
77360;BME280;66426;51.454;7.266;2023-04-24T03:14:44;98664.78;;;8.94;74.74
77360;BME280;66426;51.454;7.266;2023-04-24T03:15:45;98670.56;;;9.00;74.58
77360;BME280;66426;51.454;7.266;2023-04-24T03:16:47;98671.53;;;8.87;75.42
77360;BME280;66426;51.454;7.266;2023-04-24T03:17:48;98672.44;;;8.73;75.18
77360;BME280;66426;51.454;7.266;2023-04-24T03:18:49;98666.28;;;8.98;74.79
77360;BME280;66426;51.454;7.266;2023-04-24T03:19:50;98670.47;;;8.89;74.78
77360;BME280;66426;51.454;7.266;2023-04-24T03:20:51;98668.53;;;8.91;74.98
77360;BME280;66426;51.454;7.266;2023-04-24T03:21:52;98676.06;;;8.99;74.91
77360;BME280;66426;51.454;7.266;2023-04-24T03:22:53;98664.88;;;9.05;74.52
77360;BME280;66426;51.454;7.266;2023-04-24T03:23:53;98667.78;;;9.02;74.67
77360;BME280;66426;51.454;7.266;2023-04-24T03:24:56;98671.56;;;8.99;75.02
77360;BME280;66426;51.454;7.266;2023-04-24T03:25:57;98671.13;;;9.05;74.22
77360;BME280;66426;51.454;7.266;2023-04-24T03:26:58;98668.34;;;9.07;74.46
77360;BME280;66426;51.454;7.266;2023-04-24T03:27:59;98674.03;;;9.02;74.08
77360;BME280;66426;51.454;7.266;2023-04-24T03:29:00;98676.47;;;8.93;74.80
77360;BME280;66426;51.454;7.266;2023-04-24T03:30:01;98675.09;;;9.00;74.55
77360;BME280;66426;51.454;7.266;2023-04-24T03:31:02;98674.34;;;9.11;74.25
77360;BME280;66426;51.454;7.266;2023-04-24T03:32:03;98666.97;;;9.14;74.16
77360;BME280;66426;51.454;7.266;2023-04-24T03:33:04;98682.38;;;8.98;74.79
77360;BME280;66426;51.454;7.266;2023-04-24T03:34:06;98681.31;;;9.00;74.62
77360;BME280;66426;51.454;7.266;2023-04-24T03:35:07;98676.63;;;9.04;74.21
77360;BME280;66426;51.454;7.266;2023-04-24T03:36:09;98680.16;;;9.04;74.15
77360;BME280;66426;51.454;7.266;2023-04-24T03:37:10;98671.13;;;9.05;74.17
77360;BME280;66426;51.454;7.266;2023-04-24T03:38:11;98676.84;;;9.14;74.01
77360;BME280;66426;51.454;7.266;2023-04-24T03:39:11;98668.66;;;9.15;74.08
77360;BME280;66426;51.454;7.266;2023-04-24T03:40:14;98665.22;;;9.13;73.92
77360;BME280;66426;51.454;7.266;2023-04-24T03:41:15;98677.06;;;8.83;75.14
77360;BME280;66426;51.454;7.266;2023-04-24T03:42:16;98681.44;;;8.99;75.00
77360;BME280;66426;51.454;7.266;2023-04-24T03:43:17;98682.69;;;8.93;74.61
77360;BME280;66426;51.454;7.266;2023-04-24T03:44:18;98673.47;;;8.97;74.91
77360;BME280;66426;51.454;7.266;2023-04-24T03:45:19;98674.31;;;8.98;74.92
77360;BME280;66426;51.454;7.266;2023-04-24T03:46:20;98677.13;;;8.96;75.21
77360;BME280;66426;51.454;7.266;2023-04-24T03:47:21;98680.81;;;9.21;75.04
77360;BME280;66426;51.454;7.266;2023-04-24T03:48:21;98674.28;;;9.25;74.22
77360;BME280;66426;51.454;7.266;2023-04-24T03:49:22;98673.19;;;9.15;74.01
77360;BME280;66426;51.454;7.266;2023-04-24T03:50:23;98672.72;;;8.95;74.72
77360;BME280;66426;51.454;7.266;2023-04-24T03:51:24;98679.59;;;8.99;74.97
77360;BME280;66426;51.454;7.266;2023-04-24T03:52:26;98680.78;;;8.95;75.07
77360;BME280;66426;51.454;7.266;2023-04-24T03:53:26;98684.00;;;9.00;74.92
77360;BME280;66426;51.454;7.266;2023-04-24T03:54:27;98675.84;;;9.02;74.57
77360;BME280;66426;51.454;7.266;2023-04-24T03:55:29;98675.41;;;9.08;74.49
77360;BME280;66426;51.454;7.266;2023-04-24T03:56:30;98674.16;;;9.14;74.67
77360;BME280;66426;51.454;7.266;2023-04-24T03:57:31;98678.22;;;8.94;75.22
77360;BME280;66426;51.454;7.266;2023-04-24T03:58:31;98686.06;;;8.97;75.30
77360;BME280;66426;51.454;7.266;2023-04-24T03:59:32;98685.31;;;9.07;74.68
77360;BME280;66426;51.454;7.266;2023-04-24T04:00:33;98674.16;;;9.14;74.18
77360;BME280;66426;51.454;7.266;2023-04-24T04:01:34;98679.84;;;9.22;73.91
77360;BME280;66426;51.454;7.266;2023-04-24T04:02:37;98685.09;;;9.11;74.22
77360;BME280;66426;51.454;7.266;2023-04-24T04:03:38;98689.41;;;9.13;74.60
77360;BME280;66426;51.454;7.266;2023-04-24T04:04:38;98688.22;;;9.04;74.94
77360;BME280;66426;51.454;7.266;2023-04-24T04:05:39;98682.16;;;9.01;74.62
77360;BME280;66426;51.454;7.266;2023-04-24T04:06:40;98685.75;;;9.01;74.99
77360;BME280;66426;51.454;7.266;2023-04-24T04:07:41;98681.06;;;8.91;75.78
77360;BME280;66426;51.454;7.266;2023-04-24T04:08:42;98692.72;;;8.91;75.16
77360;BME280;66426;51.454;7.266;2023-04-24T04:09:43;98695.56;;;8.88;75.28
77360;BME280;66426;51.454;7.266;2023-04-24T04:10:45;98690.19;;;8.88;75.10
77360;BME280;66426;51.454;7.266;2023-04-24T04:11:46;98694.75;;;9.00;74.71
77360;BME280;66426;51.454;7.266;2023-04-24T04:12:47;98679.69;;;8.85;75.45
77360;BME280;66426;51.454;7.266;2023-04-24T04:13:48;98688.63;;;8.98;75.28
77360;BME280;66426;51.454;7.266;2023-04-24T04:14:49;98695.84;;;9.11;74.33
77360;BME280;66426;51.454;7.266;2023-04-24T04:15:50;98687.97;;;8.95;75.14
77360;BME280;66426;51.454;7.266;2023-04-24T04:16:51;98685.28;;;8.95;75.22
77360;BME280;66426;51.454;7.266;2023-04-24T04:17:51;98687.34;;;9.04;74.66
77360;BME280;66426;51.454;7.266;2023-04-24T04:18:52;98688.81;;;8.95;75.06
77360;BME280;66426;51.454;7.266;2023-04-24T04:19:54;98684.97;;;8.99;75.07
77360;BME280;66426;51.454;7.266;2023-04-24T04:20:55;98677.41;;;9.19;74.05
77360;BME280;66426;51.454;7.266;2023-04-24T04:21:57;98687.16;;;9.20;73.94
77360;BME280;66426;51.454;7.266;2023-04-24T04:22:58;98695.03;;;8.83;75.33
77360;BME280;66426;51.454;7.266;2023-04-24T04:23:59;98694.59;;;8.76;75.39
77360;BME280;66426;51.454;7.266;2023-04-24T04:25:00;98693.19;;;8.83;76.09
77360;BME280;66426;51.454;7.266;2023-04-24T04:26:02;98695.78;;;8.85;75.87
77360;BME280;66426;51.454;7.266;2023-04-24T04:27:04;98683.38;;;8.97;75.23
77360;BME280;66426;51.454;7.266;2023-04-24T04:28:05;98692.72;;;8.91;75.12
77360;BME280;66426;51.454;7.266;2023-04-24T04:29:06;98691.53;;;9.08;74.98
77360;BME280;66426;51.454;7.266;2023-04-24T04:30:08;98703.50;;;9.17;73.53
77360;BME280;66426;51.454;7.266;2023-04-24T04:31:10;98695.84;;;9.11;73.94
77360;BME280;66426;51.454;7.266;2023-04-24T04:32:11;98692.63;;;9.18;73.60
77360;BME280;66426;51.454;7.266;2023-04-24T04:33:12;98691.16;;;9.27;73.42
77360;BME280;66426;51.454;7.266;2023-04-24T04:34:12;98694.50;;;8.91;74.77
77360;BME280;66426;51.454;7.266;2023-04-24T04:35:14;98701.53;;;9.06;74.41
77360;BME280;66426;51.454;7.266;2023-04-24T04:36:15;98695.06;;;8.96;74.55
77360;BME280;66426;51.454;7.266;2023-04-24T04:37:17;98696.38;;;9.03;74.37
77360;BME280;66426;51.454;7.266;2023-04-24T04:38:19;98700.28;;;9.12;74.01
77360;BME280;66426;51.454;7.266;2023-04-24T04:39:20;98705.66;;;9.12;73.93
77360;BME280;66426;51.454;7.266;2023-04-24T04:40:21;98714.09;;;9.05;73.72
77360;BME280;66426;51.454;7.266;2023-04-24T04:41:23;98699.25;;;9.00;74.14
77360;BME280;66426;51.454;7.266;2023-04-24T04:42:24;98702.38;;;8.94;74.85
77360;BME280;66426;51.454;7.266;2023-04-24T04:43:25;98693.03;;;8.99;74.46
77360;BME280;66426;51.454;7.266;2023-04-24T04:44:26;98703.16;;;9.09;74.50
77360;BME280;66426;51.454;7.266;2023-04-24T04:45:28;98710.88;;;9.13;73.95
77360;BME280;66426;51.454;7.266;2023-04-24T04:46:29;98709.28;;;9.11;73.77
77360;BME280;66426;51.454;7.266;2023-04-24T04:47:32;98701.13;;;9.25;77.01
77360;BME280;66426;51.454;7.266;2023-04-24T04:48:34;98703.31;;;9.45;73.54
77360;BME280;66426;51.454;7.266;2023-04-24T04:49:35;98696.72;;;10.50;70.52
77360;BME280;66426;51.454;7.266;2023-04-24T04:50:36;98697.63;;;9.88;71.75
77360;BME280;66426;51.454;7.266;2023-04-24T04:51:37;98699.97;;;9.93;73.16
77360;BME280;66426;51.454;7.266;2023-04-24T04:52:38;98702.44;;;10.09;73.38
77360;BME280;66426;51.454;7.266;2023-04-24T04:53:39;98695.13;;;9.85;70.92
77360;BME280;66426;51.454;7.266;2023-04-24T04:54:40;98701.91;;;9.40;72.93
77360;BME280;66426;51.454;7.266;2023-04-24T04:55:41;98695.69;;;10.40;71.83
77360;BME280;66426;51.454;7.266;2023-04-24T04:56:43;98701.41;;;10.23;71.20
77360;BME280;66426;51.454;7.266;2023-04-24T04:57:44;98701.59;;;9.70;73.81
77360;BME280;66426;51.454;7.266;2023-04-24T04:58:45;98688.03;;;10.47;71.24
77360;BME280;66426;51.454;7.266;2023-04-24T04:59:46;98701.22;;;11.11;68.34
77360;BME280;66426;51.454;7.266;2023-04-24T05:00:47;98688.19;;;10.32;69.51
77360;BME280;66426;51.454;7.266;2023-04-24T05:01:49;98691.16;;;9.78;71.34
77360;BME280;66426;51.454;7.266;2023-04-24T05:02:50;98693.81;;;10.04;71.36
77360;BME280;66426;51.454;7.266;2023-04-24T05:03:51;98701.44;;;10.10;70.25
77360;BME280;66426;51.454;7.266;2023-04-24T05:04:52;98698.06;;;9.57;71.80
77360;BME280;66426;51.454;7.266;2023-04-24T05:05:53;98697.38;;;9.15;72.69
77360;BME280;66426;51.454;7.266;2023-04-24T05:06:54;98704.53;;;9.01;73.91
77360;BME280;66426;51.454;7.266;2023-04-24T05:07:55;98696.16;;;9.06;73.80
77360;BME280;66426;51.454;7.266;2023-04-24T05:08:56;98702.28;;;9.08;74.24
77360;BME280;66426;51.454;7.266;2023-04-24T05:09:57;98701.22;;;9.11;73.79
77360;BME280;66426;51.454;7.266;2023-04-24T05:10:58;98700.91;;;9.15;73.99
77360;BME280;66426;51.454;7.266;2023-04-24T05:12:01;98699.06;;;9.03;73.86
77360;BME280;66426;51.454;7.266;2023-04-24T05:13:03;98696.78;;;8.97;74.32
77360;BME280;66426;51.454;7.266;2023-04-24T05:14:04;98691.84;;;9.03;74.00
77360;BME280;66426;51.454;7.266;2023-04-24T05:15:06;98695.97;;;9.09;73.78
77360;BME280;66426;51.454;7.266;2023-04-24T05:16:07;98695.66;;;9.14;73.38
77360;BME280;66426;51.454;7.266;2023-04-24T05:17:08;98694.22;;;9.08;73.08
77360;BME280;66426;51.454;7.266;2023-04-24T05:18:09;98693.28;;;9.09;73.50
77360;BME280;66426;51.454;7.266;2023-04-24T05:19:10;98692.09;;;9.26;72.84
77360;BME280;66426;51.454;7.266;2023-04-24T05:20:12;98695.75;;;9.12;73.45
77360;BME280;66426;51.454;7.266;2023-04-24T05:21:13;98696.06;;;9.07;73.59
77360;BME280;66426;51.454;7.266;2023-04-24T05:22:14;98700.66;;;9.05;73.40
77360;BME280;66426;51.454;7.266;2023-04-24T05:23:15;98705.50;;;9.00;73.85
77360;BME280;66426;51.454;7.266;2023-04-24T05:24:16;98700.34;;;8.97;73.86
77360;BME280;66426;51.454;7.266;2023-04-24T05:25:17;98698.44;;;9.12;73.14
77360;BME280;66426;51.454;7.266;2023-04-24T05:26:18;98699.97;;;9.16;72.86
77360;BME280;66426;51.454;7.266;2023-04-24T05:27:21;98707.69;;;9.21;72.81